createdAt,value
2022-09-07T00:00:03.747Z,100659.34
2022-09-07T00:02:28.877Z,100641.47
2022-09-07T00:04:53.023Z,100647.56
2022-09-07T00:07:17.394Z,100640.22
2022-09-07T00:09:41.510Z,100664.00
2022-09-07T00:12:06.111Z,100662.13
2022-09-07T00:14:31.723Z,100659.13
2022-09-07T00:16:55.929Z,100647.63
2022-09-07T00:19:19.988Z,100661.16
2022-09-07T00:21:45.384Z,100656.34
2022-09-07T00:24:09.504Z,100641.38
2022-09-07T00:26:33.661Z,100653.06
2022-09-07T00:28:59.916Z,100659.56
2022-09-07T00:31:25.947Z,100647.06
2022-09-07T00:33:51.361Z,100657.00
2022-09-07T00:36:15.919Z,100661.34
2022-09-07T00:38:41.352Z,100661.53
2022-09-07T00:41:05.858Z,100649.66
2022-09-07T00:43:33.102Z,100655.56
2022-09-07T00:45:57.424Z,100656.47
2022-09-07T00:48:26.951Z,100651.75
2022-09-07T00:50:54.903Z,100649.84
2022-09-07T00:53:24.451Z,100652.19
2022-09-07T00:55:50.739Z,100661.34
2022-09-07T00:58:15.217Z,100657.03
2022-09-07T01:00:41.116Z,100667.53
2022-09-07T01:03:06.678Z,100659.19
2022-09-07T01:05:36.855Z,100637.97
2022-09-07T01:08:01.198Z,100650.78
2022-09-07T01:10:29.320Z,100651.47
2022-09-07T01:12:53.703Z,100649.00
2022-09-07T01:15:18.101Z,100654.25
2022-09-07T01:17:55.038Z,100665.00
2022-09-07T01:20:37.115Z,100662.56
2022-09-07T01:23:36.472Z,100653.53
2022-09-07T01:26:24.263Z,100641.84
2022-09-07T01:28:56.572Z,100657.34
2022-09-07T01:31:34.815Z,100655.41
2022-09-07T01:34:06.803Z,100654.50
2022-09-07T01:36:40.059Z,100648.09
2022-09-07T01:39:06.180Z,100641.53
2022-09-07T01:41:37.228Z,100647.41
2022-09-07T01:44:09.221Z,100649.69
2022-09-07T01:46:36.534Z,100644.63
2022-09-07T01:49:08.352Z,100643.34
2022-09-07T01:51:36.086Z,100638.13
2022-09-07T01:54:04.433Z,100609.44
2022-09-07T01:56:34.798Z,100617.91
2022-09-07T01:59:02.384Z,100640.66
2022-09-07T02:01:33.127Z,100613.63
2022-09-07T02:04:04.323Z,100642.28
2022-09-07T02:06:35.699Z,100631.59
2022-09-07T02:09:06.162Z,100636.28
2022-09-07T02:11:36.550Z,100631.81
2022-09-07T02:14:05.988Z,100612.13
2022-09-07T02:16:33.589Z,100630.97
2022-09-07T02:19:00.543Z,100630.56
2022-09-07T02:21:30.597Z,100611.06
2022-09-07T02:23:59.254Z,100645.47
2022-09-07T02:26:26.574Z,100640.19
2022-09-07T02:28:50.991Z,100639.06
2022-09-07T02:31:16.001Z,100633.25
2022-09-07T02:33:43.144Z,100629.44
2022-09-07T02:36:08.353Z,100641.78
2022-09-07T02:38:32.961Z,100637.91
2022-09-07T02:40:59.551Z,100643.97
2022-09-07T02:43:25.493Z,100637.03
2022-09-07T02:46:02.584Z,100639.59
2022-09-07T02:48:36.674Z,100632.97
2022-09-07T02:51:16.785Z,100635.16
2022-09-07T02:54:09.909Z,100634.75
2022-09-07T02:56:52.263Z,100638.63
2022-09-07T02:59:30.636Z,100638.28
2022-09-07T03:02:00.790Z,100638.91
2022-09-07T03:04:30.627Z,100635.56
2022-09-07T03:07:04.728Z,100636.97
2022-09-07T03:09:36.491Z,100633.78
2022-09-07T03:12:04.045Z,100633.91
2022-09-07T03:14:30.615Z,100643.72
2022-09-07T03:16:57.547Z,100642.66
2022-09-07T03:19:21.666Z,100645.03
2022-09-07T03:21:46.024Z,100643.03
2022-09-07T03:24:11.952Z,100658.44
2022-09-07T03:26:40.344Z,100654.25
2022-09-07T03:29:04.382Z,100637.34
2022-09-07T03:31:28.638Z,100637.91
2022-09-07T03:33:52.705Z,100639.41
2022-09-07T03:36:16.844Z,100645.09
2022-09-07T03:38:40.929Z,100601.75
2022-09-07T03:41:07.948Z,100652.53
2022-09-07T03:43:33.125Z,100648.56
2022-09-07T03:46:01.264Z,100644.03
2022-09-07T03:48:25.570Z,100611.91
2022-09-07T03:50:57.363Z,100651.81
2022-09-07T03:53:21.551Z,100655.03
2022-09-07T03:55:45.567Z,100492.69
2022-09-07T03:58:10.997Z,100641.66
2022-09-07T04:00:35.459Z,100659.53
2022-09-07T04:02:59.485Z,100654.50
2022-09-07T04:05:24.264Z,100663.13
2022-09-07T04:07:49.680Z,100679.50
2022-09-07T04:10:13.780Z,100663.28
2022-09-07T04:12:37.931Z,100666.84
2022-09-07T04:15:03.500Z,100651.81
2022-09-07T04:17:27.580Z,100632.94
2022-09-07T04:19:52.405Z,100671.81
2022-09-07T04:22:16.501Z,100672.22
2022-09-07T04:24:40.603Z,100676.91
2022-09-07T04:27:04.685Z,100677.66
2022-09-07T04:29:28.804Z,100678.78
2022-09-07T04:31:54.575Z,100669.44
2022-09-07T04:34:18.903Z,100666.16
2022-09-07T04:36:43.095Z,100681.97
2022-09-07T04:39:07.420Z,100682.50
2022-09-07T04:41:33.494Z,100662.22
2022-09-07T04:43:59.275Z,100638.38
2022-09-07T04:46:25.542Z,100668.53
2022-09-07T04:48:52.188Z,100670.34
2022-09-07T04:51:16.803Z,100684.19
2022-09-07T04:53:40.870Z,100684.78
2022-09-07T04:56:06.249Z,100633.94
2022-09-07T04:58:31.738Z,100679.69
2022-09-07T05:00:56.057Z,100675.81
2022-09-07T05:03:20.130Z,100675.00
2022-09-07T05:05:46.158Z,100680.75
2022-09-07T05:08:10.287Z,100688.91
2022-09-07T05:10:34.467Z,100687.84
2022-09-07T05:12:59.461Z,100660.13
2022-09-07T05:15:23.501Z,100684.47
2022-09-07T05:17:47.596Z,100691.69
2022-09-07T05:20:12.052Z,100697.63
2022-09-07T05:22:41.090Z,100701.28
2022-09-07T05:25:05.602Z,100676.97
2022-09-07T05:27:31.034Z,100702.00
2022-09-07T05:30:03.732Z,100702.13
2022-09-07T05:32:29.841Z,100699.19
2022-09-07T05:34:54.110Z,100696.53
2022-09-07T05:37:18.249Z,100707.94
2022-09-07T05:39:44.707Z,100693.09
2022-09-07T05:42:09.021Z,100588.72
2022-09-07T05:47:05.403Z,100694.69
2022-09-07T05:49:29.813Z,100698.22
2022-09-07T05:51:55.091Z,100688.44
2022-09-07T05:54:19.406Z,100692.84
2022-09-07T05:56:44.908Z,100696.47
2022-09-07T05:59:09.011Z,100701.19
2022-09-07T06:01:35.471Z,100710.09
2022-09-07T06:03:59.766Z,100711.03
2022-09-07T06:06:23.983Z,100716.25
2022-09-07T06:08:50.190Z,100711.50
2022-09-07T06:11:16.710Z,100713.94
2022-09-07T06:13:43.191Z,100721.81
2022-09-07T06:16:09.292Z,100709.97
2022-09-07T06:18:34.896Z,100719.13
2022-09-07T06:21:03.989Z,100725.38
2022-09-07T06:23:28.095Z,100722.28
2022-09-07T06:25:52.252Z,100722.88
2022-09-07T06:28:16.315Z,100724.78
2022-09-07T06:30:41.725Z,100726.69
2022-09-07T06:33:05.831Z,100681.44
2022-09-07T06:35:30.301Z,100729.69
2022-09-07T06:37:54.361Z,100719.03
2022-09-07T06:40:18.795Z,100722.38
2022-09-07T06:42:42.926Z,100698.09
2022-09-07T06:45:11.277Z,100728.78
2022-09-07T06:47:37.252Z,100734.16
2022-09-07T06:50:01.834Z,100726.75
2022-09-07T06:52:28.227Z,100715.34
2022-09-07T06:54:59.899Z,100732.09
2022-09-07T06:57:32.362Z,100738.47
2022-09-07T06:59:56.608Z,100716.06
2022-09-07T07:02:20.738Z,100703.84
2022-09-07T07:04:46.688Z,100741.94
2022-09-07T07:07:15.030Z,100744.22
2022-09-07T07:09:39.455Z,100737.56
2022-09-07T07:12:04.450Z,100735.34
2022-09-07T07:14:31.015Z,100730.88
2022-09-07T07:16:56.406Z,100725.94
2022-09-07T07:19:20.540Z,100736.28
2022-09-07T07:22:10.751Z,100719.84
2022-09-07T07:24:30.229Z,100733.59
2022-09-07T07:26:54.420Z,100716.59
2022-09-07T07:29:19.002Z,100737.03
2022-09-07T07:31:43.304Z,100697.19
2022-09-07T07:34:07.632Z,100736.13
2022-09-07T07:36:31.903Z,100725.66
2022-09-07T07:38:59.656Z,100733.47
2022-09-07T07:44:10.953Z,100741.66
2022-09-07T07:46:35.161Z,100715.53
2022-09-07T07:49:00.215Z,100703.69
2022-09-07T07:51:24.906Z,100741.13
2022-09-07T07:53:48.988Z,100726.31
2022-09-07T07:56:14.890Z,100723.88
2022-09-07T07:58:39.908Z,100715.19
2022-09-07T08:01:08.119Z,100714.78
2022-09-07T08:03:36.521Z,100716.31
2022-09-07T08:06:08.137Z,100717.44
2022-09-07T08:08:32.350Z,100711.31
2022-09-07T08:10:56.497Z,100721.06
2022-09-07T08:13:22.526Z,100712.28
2022-09-07T08:15:46.925Z,100723.03
2022-09-07T08:18:13.127Z,100716.50
2022-09-07T08:20:37.010Z,100711.09
2022-09-07T08:23:01.031Z,100720.88
2022-09-07T08:25:25.487Z,100726.19
2022-09-07T08:27:49.393Z,100694.44
2022-09-07T08:30:14.888Z,100723.19
2022-09-07T08:32:39.067Z,100716.81
2022-09-07T08:35:03.223Z,100720.25
2022-09-07T08:37:27.687Z,100710.53
2022-09-07T08:39:51.798Z,100713.16
2022-09-07T08:42:39.028Z,100720.63
2022-09-07T08:45:07.471Z,100722.13
2022-09-07T08:47:39.170Z,100724.47
2022-09-07T08:50:09.588Z,100727.56
2022-09-07T08:52:47.748Z,100730.47
2022-09-07T08:55:18.758Z,100731.66
2022-09-07T08:57:50.143Z,100722.38
2022-09-07T09:00:16.972Z,100727.31
2022-09-07T09:05:33.099Z,100710.19
2022-09-07T09:06:11.377Z,100708.19
2022-09-07T09:08:10.528Z,100709.22
2022-09-07T09:10:42.089Z,100686.13
2022-09-07T09:13:16.480Z,100710.56
2022-09-07T09:15:53.589Z,100708.53
2022-09-07T09:18:32.637Z,100673.50
2022-09-07T09:20:58.201Z,100699.78
2022-09-07T09:23:26.806Z,100692.56
2022-09-07T09:25:54.977Z,100693.66
2022-09-07T09:28:19.396Z,100689.03
2022-09-07T09:30:43.415Z,100679.16
2022-09-07T09:33:17.194Z,100675.63
2022-09-07T09:35:43.948Z,100684.00
2022-09-07T09:38:29.991Z,100679.03
2022-09-07T09:40:54.984Z,100679.81
2022-09-07T09:43:21.264Z,100684.28
2022-09-07T09:48:34.713Z,100666.78
2022-09-07T09:53:56.009Z,100665.34
2022-09-07T09:56:20.239Z,100673.06
2022-09-07T10:01:35.301Z,100684.63
2022-09-07T10:04:16.527Z,100683.06
2022-09-07T10:06:52.408Z,100657.63
2022-09-07T10:09:21.134Z,100553.63
2022-09-07T10:14:34.186Z,100670.78
2022-09-07T10:16:59.097Z,100674.72
2022-09-07T10:19:30.795Z,100672.03
2022-09-07T10:22:01.814Z,100680.00
2022-09-07T10:24:27.959Z,100675.28
2022-09-07T10:26:53.211Z,100681.75
2022-09-07T10:29:23.177Z,100651.06
2022-09-07T10:32:02.599Z,100668.09
2022-09-07T10:34:33.483Z,100666.09
2022-09-07T10:37:04.912Z,100673.41
2022-09-07T10:39:35.779Z,100673.47
2022-09-07T10:42:06.556Z,100640.56
2022-09-07T10:44:43.492Z,100670.59
2022-09-07T10:47:16.674Z,100674.03
2022-09-07T10:52:42.319Z,100670.09
2022-09-07T10:55:13.129Z,100664.44
2022-09-07T10:57:49.156Z,100666.41
2022-09-07T11:00:16.146Z,100647.72
2022-09-07T11:06:04.199Z,100669.47
2022-09-07T11:14:16.319Z,100662.16
2022-09-07T11:16:53.953Z,100666.84
2022-09-07T11:19:38.719Z,100654.75
2022-09-07T11:22:16.128Z,100644.44
2022-09-07T11:24:47.815Z,100640.94
2022-09-07T11:27:17.045Z,100645.50
2022-09-07T11:29:48.361Z,100631.88
2022-09-07T11:32:18.163Z,100647.38
2022-09-07T11:34:47.715Z,100644.94
2022-09-07T11:37:18.010Z,100619.88
2022-09-07T11:39:48.513Z,100645.41
2022-09-07T11:45:07.172Z,100631.03
2022-09-07T11:47:39.339Z,100633.72
2022-09-07T11:50:03.593Z,100616.53
2022-09-07T11:52:35.557Z,100631.25
2022-09-07T11:55:04.700Z,100607.38
2022-09-07T11:57:45.220Z,100597.38
2022-09-07T12:00:15.845Z,100596.28
2022-09-07T12:03:12.114Z,100605.22
2022-09-07T12:06:00.936Z,100598.88
2022-09-07T12:08:39.763Z,100610.25
2022-09-07T12:11:24.340Z,100602.66
2022-09-07T12:14:10.695Z,100604.00
2022-09-07T12:16:49.349Z,100596.13
2022-09-07T12:19:21.392Z,100556.41
2022-09-07T12:21:48.462Z,100598.50
2022-09-07T12:24:36.778Z,100591.31
2022-09-07T12:27:03.436Z,100597.88
2022-09-07T12:29:29.131Z,100590.53
2022-09-07T12:32:07.368Z,100590.19
2022-09-07T12:34:58.122Z,100582.81
2022-09-07T12:37:42.464Z,100591.25
2022-09-07T12:41:01.271Z,100598.28
2022-09-07T12:44:08.332Z,100597.22
2022-09-07T12:46:51.915Z,100597.16
2022-09-07T12:49:30.675Z,100596.22
2022-09-07T12:52:14.212Z,100598.41
2022-09-07T12:54:42.675Z,100587.91
2022-09-07T12:57:29.564Z,100581.88
2022-09-07T13:00:11.682Z,100583.66
2022-09-07T13:02:55.983Z,100603.47
2022-09-07T13:05:33.419Z,100603.97
2022-09-07T13:08:22.057Z,100594.59
2022-09-07T13:10:47.203Z,100591.22
2022-09-07T13:14:02.642Z,100594.13
2022-09-07T13:16:30.954Z,100590.28
2022-09-07T13:18:55.468Z,100589.22
2022-09-07T13:21:40.826Z,100579.03
2022-09-07T13:24:50.177Z,100579.28
2022-09-07T13:27:38.804Z,100561.31
2022-09-07T13:30:21.139Z,100574.53
2022-09-07T13:35:32.030Z,100587.50
2022-09-07T13:37:57.920Z,100572.81
2022-09-07T13:40:26.645Z,100587.31
2022-09-07T13:42:53.262Z,100578.25
2022-09-07T13:45:31.131Z,100578.69
2022-09-07T13:48:05.313Z,100562.97
2022-09-07T13:50:39.131Z,100576.97
2022-09-07T13:53:28.651Z,100572.44
2022-09-07T13:56:04.249Z,100573.91
2022-09-07T13:58:31.004Z,100575.84
2022-09-07T14:00:57.591Z,100570.25
2022-09-07T14:03:25.172Z,100581.78
2022-09-07T14:05:49.161Z,100581.06
2022-09-07T14:08:26.135Z,100589.13
2022-09-07T14:10:50.236Z,100590.19
2022-09-07T14:13:14.179Z,100591.03
2022-09-07T14:15:42.547Z,100587.41
2022-09-07T14:18:07.930Z,100590.53
2022-09-07T14:20:39.567Z,100590.28
2022-09-07T14:23:03.627Z,100593.00
2022-09-07T14:25:27.765Z,100592.53
2022-09-07T14:27:51.944Z,100594.81
2022-09-07T14:30:17.509Z,100568.91
2022-09-07T14:32:41.907Z,100597.06
2022-09-07T14:35:12.139Z,100584.19
2022-09-07T14:37:38.360Z,100569.28
2022-09-07T14:40:04.404Z,100583.03
2022-09-07T14:42:28.406Z,100580.34
2022-09-07T14:45:12.701Z,100592.78
2022-09-07T14:47:37.683Z,100584.91
2022-09-07T14:50:05.993Z,100586.78
2022-09-07T14:52:36.779Z,100583.00
2022-09-07T14:55:19.895Z,100585.09
2022-09-07T14:57:43.821Z,100580.38
2022-09-07T15:00:22.725Z,100590.06
2022-09-07T15:02:46.667Z,100578.59
2022-09-07T15:05:20.509Z,100575.28
2022-09-07T15:07:48.748Z,100568.69
2022-09-07T15:10:28.787Z,100588.16
2022-09-07T15:12:54.916Z,100590.13
2022-09-07T15:15:26.275Z,100582.50
2022-09-07T15:17:50.898Z,100547.00
2022-09-07T15:20:38.359Z,100582.22
2022-09-07T15:23:03.858Z,100577.69
2022-09-07T15:25:30.585Z,100593.44
2022-09-07T15:27:55.699Z,100587.94
2022-09-07T15:30:19.731Z,100579.94
2022-09-07T15:32:43.660Z,100572.53
2022-09-07T15:35:08.163Z,100579.53
2022-09-07T15:40:20.538Z,100574.75
2022-09-07T15:43:06.614Z,100574.66
2022-09-07T15:45:29.896Z,100568.25
2022-09-07T15:47:54.008Z,100573.13
2022-09-07T15:50:18.454Z,100567.06
2022-09-07T15:52:42.732Z,100562.16
2022-09-07T15:55:11.815Z,100557.88
2022-09-07T15:57:59.249Z,100558.81
2022-09-07T16:00:21.539Z,100547.28
2022-09-07T16:05:31.345Z,100566.97
2022-09-07T16:10:40.416Z,100568.56
2022-09-07T16:13:10.826Z,100557.78
2022-09-07T16:15:36.842Z,100528.47
2022-09-07T16:18:01.198Z,100562.03
2022-09-07T16:20:25.271Z,100539.66
2022-09-07T16:25:33.365Z,100549.31
2022-09-07T16:27:58.053Z,100553.63
2022-09-07T16:30:22.324Z,100567.50
2022-09-07T16:32:48.168Z,100559.56
2022-09-07T16:35:12.222Z,100540.63
2022-09-07T16:37:36.166Z,100549.06
2022-09-07T16:40:00.273Z,100548.56
2022-09-07T16:42:24.196Z,100561.38
2022-09-07T16:44:48.102Z,100557.44
2022-09-07T16:47:12.833Z,100552.53
2022-09-07T16:49:39.146Z,100568.44
2022-09-07T16:52:05.295Z,100566.94
2022-09-07T16:54:29.218Z,100566.25
2022-09-07T16:56:53.610Z,100567.56
2022-09-07T16:59:20.289Z,100567.00
2022-09-07T17:01:44.288Z,100575.22
2022-09-07T17:04:11.220Z,100569.44
2022-09-07T17:06:37.079Z,100561.25
2022-09-07T17:09:01.318Z,100570.41
2022-09-07T17:11:26.812Z,100578.50
2022-09-07T17:13:51.744Z,100579.19
2022-09-07T17:16:17.693Z,100554.47
2022-09-07T17:21:29.279Z,100574.03
2022-09-07T17:23:55.803Z,100571.78
2022-09-07T17:26:21.719Z,100576.59
2022-09-07T17:28:47.302Z,100589.78
2022-09-07T17:32:23.941Z,100583.38
2022-09-07T17:33:59.676Z,100586.78
2022-09-07T17:36:24.829Z,100582.25
2022-09-07T17:39:19.297Z,100588.47
2022-09-07T17:41:34.107Z,100575.78
2022-09-07T17:44:00.045Z,100587.94
2022-09-07T17:46:25.934Z,100582.00
2022-09-07T17:48:52.136Z,100588.63
2022-09-07T17:51:18.297Z,100590.63
2022-09-07T17:53:45.298Z,100578.47
2022-09-07T17:56:13.528Z,100591.03
2022-09-07T17:58:40.178Z,100580.03
2022-09-07T18:01:05.612Z,100601.81
2022-09-07T18:03:34.751Z,100607.19
2022-09-07T18:06:00.363Z,100586.94
2022-09-07T18:08:24.909Z,100600.13
2022-09-07T18:13:36.311Z,100613.72
2022-09-07T18:16:02.941Z,100612.97
2022-09-07T18:18:27.478Z,100605.16
2022-09-07T18:20:51.426Z,100607.47
2022-09-07T18:23:15.449Z,100603.19
2022-09-07T18:25:39.895Z,100616.25
2022-09-07T18:30:49.433Z,100599.22
2022-09-07T18:33:14.871Z,100600.94
2022-09-07T18:35:39.037Z,100586.50
2022-09-07T18:38:03.122Z,100588.16
2022-09-07T18:40:27.189Z,100601.16
2022-09-07T18:42:52.589Z,100611.03
2022-09-07T18:45:31.987Z,100559.72
2022-09-07T18:47:56.719Z,100582.09
2022-09-07T18:50:23.333Z,100611.16
2022-09-07T18:52:57.422Z,100611.44
2022-09-07T18:55:28.720Z,100613.38
2022-09-07T18:57:52.789Z,100613.19
2022-09-07T19:00:17.929Z,100602.00
2022-09-07T19:02:42.495Z,100604.63
2022-09-07T19:07:52.972Z,100604.19
2022-09-07T19:10:17.897Z,100589.28
2022-09-07T19:12:45.647Z,100606.31
2022-09-07T19:15:11.677Z,100580.66
2022-09-07T19:17:35.955Z,100604.03
2022-09-07T19:20:01.187Z,100563.28
2022-09-07T19:22:27.955Z,100596.00
2022-09-07T19:24:55.920Z,100602.38
2022-09-07T19:27:21.660Z,100605.13
2022-09-07T19:29:47.697Z,100581.56
2022-09-07T19:32:13.140Z,100601.31
2022-09-07T19:34:39.174Z,100588.34
2022-09-07T19:37:03.549Z,100571.88
2022-09-07T19:39:27.616Z,100584.72
2022-09-07T19:41:53.050Z,100605.63
2022-09-07T19:44:17.193Z,100600.09
2022-09-07T19:46:42.828Z,100586.97
2022-09-07T19:49:12.057Z,100604.50
2022-09-07T19:51:36.894Z,100582.88
2022-09-07T19:54:00.911Z,100599.28
2022-09-07T19:56:24.848Z,100602.34
2022-09-07T19:58:51.032Z,100604.53
2022-09-07T20:01:17.775Z,100601.75
2022-09-07T20:03:43.101Z,100605.03
2022-09-07T20:06:08.305Z,100606.84
2022-09-07T20:08:32.252Z,100595.06
2022-09-07T20:11:02.044Z,100596.25
2022-09-07T20:13:26.117Z,100593.13
2022-09-07T20:15:51.557Z,100595.53
2022-09-07T20:18:15.480Z,100594.31
2022-09-07T20:20:39.675Z,100599.06
2022-09-07T20:23:03.649Z,100597.25
2022-09-07T20:25:27.603Z,100566.59
2022-09-07T20:27:51.688Z,100588.50
2022-09-07T20:30:17.931Z,100580.69
2022-09-07T20:32:44.947Z,100597.97
2022-09-07T20:35:09.872Z,100589.47
2022-09-07T20:37:34.246Z,100592.72
2022-09-07T20:39:58.084Z,100595.03
2022-09-07T20:42:22.271Z,100584.31
2022-09-07T20:44:47.104Z,100594.78
2022-09-07T20:47:11.416Z,100574.09
2022-09-07T20:49:37.656Z,100585.00
2022-09-07T20:52:02.359Z,100585.41
2022-09-07T20:54:26.562Z,100588.47
2022-09-07T20:56:50.868Z,100593.50
2022-09-07T20:59:15.812Z,100594.91
2022-09-07T21:01:40.423Z,100553.66
2022-09-07T21:04:06.415Z,100569.88
2022-09-07T21:06:33.416Z,100565.44
2022-09-07T21:08:58.273Z,100581.00
2022-09-07T21:11:24.801Z,100598.78
2022-09-07T21:13:49.508Z,100602.81
2022-09-07T21:16:15.950Z,100600.47
2022-09-07T21:18:40.987Z,100590.38
2022-09-07T21:21:21.439Z,100594.44
2022-09-07T21:23:48.124Z,100561.41
2022-09-07T21:26:12.677Z,100609.72
2022-09-07T21:28:37.631Z,100568.53
2022-09-07T21:31:05.057Z,100602.38
2022-09-07T21:33:31.251Z,100601.25
2022-09-07T21:35:55.618Z,100597.72
2022-09-07T21:38:19.931Z,100608.56
2022-09-07T21:40:45.403Z,100529.38
2022-09-07T21:43:09.386Z,100549.13
2022-09-07T21:45:33.475Z,100610.13
2022-09-07T21:47:57.352Z,100596.41
2022-09-07T21:50:21.245Z,100605.75
2022-09-07T21:52:45.397Z,100598.56
2022-09-07T21:55:09.912Z,100609.78
2022-09-07T21:57:35.586Z,100596.00
2022-09-07T21:59:59.602Z,100590.75
2022-09-07T22:02:23.739Z,100607.94
2022-09-07T22:04:47.688Z,100595.56
2022-09-07T22:07:11.928Z,100600.38
2022-09-07T22:09:35.909Z,100592.03
2022-09-07T22:12:00.206Z,100588.22
2022-09-07T22:14:25.540Z,100586.41
2022-09-07T22:16:49.643Z,100569.00
2022-09-07T22:19:14.053Z,100579.53
2022-09-07T22:21:38.586Z,100565.59
2022-09-07T22:24:04.899Z,100565.75
2022-09-07T22:26:30.353Z,100554.31
2022-09-07T22:28:54.708Z,100551.63
2022-09-07T22:31:22.081Z,100568.06
2022-09-07T22:33:47.196Z,100557.59
2022-09-07T22:36:13.439Z,100571.06
2022-09-07T22:38:37.892Z,100557.22
2022-09-07T22:41:08.118Z,100551.38
2022-09-07T22:43:32.535Z,100557.66
2022-09-07T22:45:56.653Z,100545.50
2022-09-07T22:48:21.927Z,100533.22
2022-09-07T22:50:46.329Z,100556.44
2022-09-07T22:53:10.161Z,100548.88
2022-09-07T22:55:34.007Z,100541.31
2022-09-07T22:57:59.071Z,100556.25
2022-09-07T23:00:23.249Z,100550.47
2022-09-07T23:02:47.470Z,100552.25
2022-09-07T23:05:13.028Z,100554.13
2022-09-07T23:07:36.917Z,100553.16
2022-09-07T23:10:00.981Z,100539.56
2022-09-07T23:12:25.096Z,100526.00
2022-09-07T23:14:49.124Z,100547.84
2022-09-07T23:17:13.060Z,100540.38
2022-09-07T23:19:37.244Z,100556.09
2022-09-07T23:22:03.162Z,100527.59
2022-09-07T23:24:27.268Z,100521.44
2022-09-07T23:26:51.615Z,100517.09
2022-09-07T23:29:16.574Z,100546.06
2022-09-07T23:31:41.053Z,100539.84
2022-09-07T23:34:05.432Z,100536.38
2022-09-07T23:36:29.475Z,100538.75
2022-09-07T23:38:57.042Z,100527.91
2022-09-07T23:41:22.155Z,100529.56
2022-09-07T23:43:46.340Z,100533.50
2022-09-07T23:46:11.642Z,100537.38
2022-09-07T23:48:35.696Z,100538.88
2022-09-07T23:50:59.595Z,100495.19
2022-09-07T23:53:23.951Z,100546.25
2022-09-07T23:55:51.595Z,100533.38
2022-09-07T23:58:15.800Z,100501.63
